Time;durP1;ratioP1;P1;durP2;ratioP2;P2;SDS_P1;SDS_P2;PMS_P1;PMS_P2;Temp;Humidity;BMP_temperature;BMP_pressure;BME280_temperature;BME280_humidity;BME280_pressure;Samples;Min_cycle;Max_cycle;Signal;HPM_P1;HPM_P2
2022/03/03 00:01:13;;;;;;;;;;;;;;;2.91;73.71289;102229;;;;-84
2022/03/03 00:05:42;;;;;;;18;7.8;;;;;;;;;;;;;-83
2022/03/03 00:06:13;;;;;;;;;;;;;;;2.86;73.78223;102222.2;;;;-83
2022/03/03 00:11:15;;;;;;;;;;;;;;;2.79;73.79102;102221.6;;;;-84
2022/03/03 00:16:13;;;;;;;;;;;;;;;2.79;73.75879;102224.2;;;;-82
2022/03/03 00:21:19;;;;;;;;;;;;;;;2.74;73.68555;102228.8;;;;-84
2022/03/03 00:26:14;;;;;;;;;;;;;;;2.71;73.77832;102226.1;;;;-83
2022/03/03 00:31:13;;;;;;;;;;;;;;;2.68;73.8916;102221.6;;;;-83
2022/03/03 00:35:39;;;;;;;17.1;7;;;;;;;;;;;;;-81
2022/03/03 00:36:15;;;;;;;;;;;;;;;2.63;73.91699;102209.8;;;;-84
2022/03/03 00:41:13;;;;;;;;;;;;;;;2.64;74.02734;102214.2;;;;-83
2022/03/03 00:46:14;;;;;;;;;;;;;;;2.63;73.83008;102210.6;;;;-83
2022/03/03 00:51:16;;;;;;;;;;;;;;;2.57;74.09082;102212.5;;;;-81
2022/03/03 00:56:13;;;;;;;;;;;;;;;2.54;73.73828;102206.2;;;;-83
2022/03/03 01:01:20;;;;;;;;;;;;;;;2.49;73.84863;102202.1;;;;-83
2022/03/03 01:05:41;;;;;;;16.3;6.8;;;;;;;;;;;;;-83
2022/03/03 01:06:14;;;;;;;;;;;;;;;2.44;73.85156;102202.1;;;;-84
2022/03/03 01:11:16;;;;;;;;;;;;;;;2.41;73.94434;102193.6;;;;-82
2022/03/03 01:16:19;;;;;;;;;;;;;;;2.39;74.03809;102189.1;;;;-82
2022/03/03 01:21:16;;;;;;;;;;;;;;;2.34;73.97559;102180.8;;;;-84
2022/03/03 01:26:13;;;;;;;;;;;;;;;2.33;73.94141;102181;;;;-84
2022/03/03 01:31:14;;;;;;;;;;;;;;;2.28;74.00781;102175;;;;-83
2022/03/03 01:35:39;;;;;;;18;7;;;;;;;;;;;;;-82
2022/03/03 01:36:18;;;;;;;;;;;;;;;2.25;74.11328;102162.6;;;;-83
2022/03/03 01:41:15;;;;;;;;;;;;;;;2.29;74.00977;102153.9;;;;-82
2022/03/03 01:46:16;;;;;;;;;;;;;;;2.25;73.87305;102149.4;;;;-83
2022/03/03 01:51:15;;;;;;;;;;;;;;;2.17;73.89258;102145.9;;;;-84
2022/03/03 01:56:13;;;;;;;;;;;;;;;2.12;73.95898;102138.1;;;;-84
2022/03/03 02:01:13;;;;;;;;;;;;;;;2.09;74.09473;102141.9;;;;-83
2022/03/03 02:05:38;;;;;;;17.4;6.8;;;;;;;;;;;;;-83
2022/03/03 02:06:13;;;;;;;;;;;;;;;2.08;74.21289;102138.3;;;;-84
2022/03/03 02:11:14;;;;;;;;;;;;;;;2.1;73.98926;102130.4;;;;-83
2022/03/03 02:16:13;;;;;;;;;;;;;;;2.12;74.05762;102132.5;;;;-83
2022/03/03 02:21:15;;;;;;;;;;;;;;;2.02;73.91992;102129.2;;;;-83
2022/03/03 02:26:16;;;;;;;;;;;;;;;2.04;74.19336;102125.6;;;;-83
2022/03/03 02:31:28;;;;;;;;;;;;;;;2.03;74.07227;102119.1;;;;-84
2022/03/03 02:35:38;;;;;;;13.8;6.6;;;;;;;;;;;;;-84
2022/03/03 02:36:27;;;;;;;;;;;;;;;2;74.08008;102116.9;;;;-83
2022/03/03 02:41:20;;;;;;;;;;;;;;;1.96;73.82227;102111.1;;;;-82
2022/03/03 02:46:19;;;;;;;;;;;;;;;1.96;73.95313;102105.4;;;;-82
2022/03/03 02:51:16;;;;;;;;;;;;;;;1.92;73.98828;102106.2;;;;-83
2022/03/03 02:56:13;;;;;;;;;;;;;;;1.88;73.98242;102098.9;;;;-83
2022/03/03 03:01:14;;;;;;;;;;;;;;;1.84;74.04102;102091.4;;;;-83
2022/03/03 03:05:38;;;;;;;18.8;7;;;;;;;;;;;;;-83
2022/03/03 03:06:16;;;;;;;;;;;;;;;1.81;74.09082;102089.9;;;;-83
2022/03/03 03:11:15;;;;;;;;;;;;;;;1.8;74.08789;102093.1;;;;-83
2022/03/03 03:16:13;;;;;;;;;;;;;;;1.82;74.07031;102080;;;;-83
2022/03/03 03:21:13;;;;;;;;;;;;;;;1.79;74.03125;102075.5;;;;-82
2022/03/03 03:26:14;;;;;;;;;;;;;;;1.76;74.11426;102072.2;;;;-83
2022/03/03 03:31:15;;;;;;;;;;;;;;;1.72;74.18359;102072;;;;-82
2022/03/03 03:35:39;;;;;;;18;6.6;;;;;;;;;;;;;-82
2022/03/03 03:36:13;;;;;;;;;;;;;;;1.72;74.18164;102075;;;;-82
2022/03/03 03:41:15;;;;;;;;;;;;;;;1.66;74.20508;102067.4;;;;-82
2022/03/03 03:46:13;;;;;;;;;;;;;;;1.65;74.23633;102057.6;;;;-84
2022/03/03 03:51:15;;;;;;;;;;;;;;;1.68;74.1543;102053.7;;;;-83
2022/03/03 03:56:14;;;;;;;;;;;;;;;1.63;74.2334;102048.6;;;;-83
2022/03/03 04:01:14;;;;;;;;;;;;;;;1.58;74.25781;102045.2;;;;-83
2022/03/03 04:05:36;;;;;;;15.9;6.6;;;;;;;;;;;;;-82
2022/03/03 04:06:13;;;;;;;;;;;;;;;1.54;74.33691;102041.2;;;;-83
2022/03/03 04:11:19;;;;;;;;;;;;;;;1.51;74.41699;102036.7;;;;-83
2022/03/03 04:16:13;;;;;;;;;;;;;;;1.57;74.30859;102040;;;;-83
2022/03/03 04:21:19;;;;;;;;;;;;;;;1.52;74.20313;102051.4;;;;-83
2022/03/03 04:26:13;;;;;;;;;;;;;;;1.47;74.33496;102052.3;;;;-83
2022/03/03 04:31:15;;;;;;;;;;;;;;;1.42;74.34863;102046;;;;-82
2022/03/03 04:35:42;;;;;;;15.6;6.3;;;;;;;;;;;;;-83
2022/03/03 04:36:15;;;;;;;;;;;;;;;1.33;74.46289;102047.1;;;;-83
2022/03/03 04:41:13;;;;;;;;;;;;;;;1.26;74.49316;102044.2;;;;-83
2022/03/03 04:46:19;;;;;;;;;;;;;;;1.23;74.59766;102043.5;;;;-82
2022/03/03 04:51:15;;;;;;;;;;;;;;;1.18;74.59863;102048.3;;;;-83
2022/03/03 04:56:14;;;;;;;;;;;;;;;1.14;74.7002;102041.9;;;;-84
2022/03/03 05:01:14;;;;;;;;;;;;;;;1.11;74.71777;102049.3;;;;-82
2022/03/03 05:05:37;;;;;;;17;6.3;;;;;;;;;;;;;-82
2022/03/03 05:06:13;;;;;;;;;;;;;;;1.15;74.63574;102047.7;;;;-83
2022/03/03 05:11:15;;;;;;;;;;;;;;;1.08;74.60449;102042.8;;;;-84
2022/03/03 05:16:13;;;;;;;;;;;;;;;1.09;74.62598;102040.6;;;;-83
2022/03/03 05:21:15;;;;;;;;;;;;;;;1.07;74.52539;102031.9;;;;-84
2022/03/03 05:26:19;;;;;;;;;;;;;;;1.03;74.58203;102034.7;;;;-83
2022/03/03 05:31:15;;;;;;;;;;;;;;;0.98;74.62891;102024.9;;;;-84
2022/03/03 05:35:35;;;;;;;15.6;6.4;;;;;;;;;;;;;-81
2022/03/03 05:36:14;;;;;;;;;;;;;;;0.94;74.7959;102030.5;;;;-82
2022/03/03 05:41:14;;;;;;;;;;;;;;;0.92;74.69531;102030.6;;;;-83
2022/03/03 05:46:13;;;;;;;;;;;;;;;0.89;74.58008;102030;;;;-84
2022/03/03 05:51:22;;;;;;;;;;;;;;;0.86;74.75977;102032.1;;;;-83
2022/03/03 05:56:14;;;;;;;;;;;;;;;0.83;74.75488;102033.4;;;;-82
2022/03/03 06:01:14;;;;;;;;;;;;;;;0.84;74.83203;102036.7;;;;-83
2022/03/03 06:05:36;;;;;;;15.9;6.8;;;;;;;;;;;;;-83
2022/03/03 06:06:18;;;;;;;;;;;;;;;0.81;74.56738;102043;;;;-83
2022/03/03 06:11:16;;;;;;;;;;;;;;;0.75;74.70801;102039.3;;;;-82
2022/03/03 06:16:14;;;;;;;;;;;;;;;0.72;74.76855;102041;;;;-83
2022/03/03 06:21:18;;;;;;;;;;;;;;;0.76;74.62305;102048.1;;;;-84
2022/03/03 06:26:16;;;;;;;;;;;;;;;0.71;74.74512;102045;;;;-84
2022/03/03 06:31:13;;;;;;;;;;;;;;;0.7;74.70898;102050.9;;;;-83
2022/03/03 06:35:36;;;;;;;16;6.9;;;;;;;;;;;;;-84
2022/03/03 06:36:14;;;;;;;;;;;;;;;0.73;74.71582;102053.8;;;;-82
2022/03/03 06:41:13;;;;;;;;;;;;;;;0.74;74.6416;102051.1;;;;-82
2022/03/03 06:46:18;;;;;;;;;;;;;;;0.73;74.63965;102056.2;;;;-84
2022/03/03 06:51:17;;;;;;;;;;;;;;;0.75;74.35059;102064.7;;;;-82
2022/03/03 06:56:19;;;;;;;;;;;;;;;0.81;74.42676;102069.2;;;;-83
2022/03/03 07:01:16;;;;;;;;;;;;;;;0.74;74.57617;102064.2;;;;-83
2022/03/03 07:05:40;;;;;;;17.4;7.1;;;;;;;;;;;;;-83
2022/03/03 07:06:13;;;;;;;;;;;;;;;0.75;74.78418;102067.3;;;;-82
2022/03/03 07:11:14;;;;;;;;;;;;;;;0.79;75.13867;102062.7;;;;-82
2022/03/03 07:16:25;;;;;;;;;;;;;;;0.88;75.43457;102064.8;;;;-82
2022/03/03 07:21:17;;;;;;;;;;;;;;;1;75.80176;102071.9;;;;-83
2022/03/03 07:26:13;;;;;;;;;;;;;;;1.13;75.8916;102069.5;;;;-82
2022/03/03 07:31:13;;;;;;;;;;;;;;;1.32;75.07813;102070.3;;;;-82
2022/03/03 07:35:35;;;;;;;19.4;8.2;;;;;;;;;;;;;-83
2022/03/03 07:36:13;;;;;;;;;;;;;;;1.61;74.05566;102069.9;;;;-82
2022/03/03 07:41:14;;;;;;;;;;;;;;;1.77;73.68066;102077.2;;;;-82
2022/03/03 07:46:13;;;;;;;;;;;;;;;1.89;73.80957;102069.5;;;;-81
2022/03/03 07:51:15;;;;;;;;;;;;;;;2.03;73.57227;102071.9;;;;-84
2022/03/03 07:56:15;;;;;;;;;;;;;;;2.2;73.4502;102073.4;;;;-83
2022/03/03 08:01:23;;;;;;;;;;;;;;;2.34;73.38672;102064.2;;;;-82
2022/03/03 08:05:33;;;;;;;20.8;8.6;;;;;;;;;;;;;-83
2022/03/03 08:06:14;;;;;;;;;;;;;;;2.51;73.37402;102070.7;;;;-82
2022/03/03 08:11:14;;;;;;;;;;;;;;;2.73;73.81445;102077.3;;;;-84
2022/03/03 08:16:13;;;;;;;;;;;;;;;2.99;73.72754;102075.1;;;;-83
2022/03/03 08:21:14;;;;;;;;;;;;;;;3.22;73.43945;102079.2;;;;-83
2022/03/03 08:26:14;;;;;;;;;;;;;;;3.49;73.3457;102079.5;;;;-82
2022/03/03 08:31:16;;;;;;;;;;;;;;;3.87;73.85742;102084.2;;;;-82
2022/03/03 08:35:36;;;;;;;24.8;10;;;;;;;;;;;;;-83
2022/03/03 08:36:19;;;;;;;;;;;;;;;4.38;73.23438;102081.5;;;;-82
2022/03/03 08:41:17;;;;;;;;;;;;;;;4.65;72.69043;102082.2;;;;-83
2022/03/03 08:46:20;;;;;;;;;;;;;;;5.17;72.53613;102083.1;;;;-83
2022/03/03 08:51:15;;;;;;;;;;;;;;;5.55;71.71094;102079.4;;;;-83
2022/03/03 08:56:14;;;;;;;;;;;;;;;5.99;70.05078;102081.3;;;;-82
2022/03/03 09:01:13;;;;;;;;;;;;;;;6.43;69.66016;102078.3;;;;-82
2022/03/03 09:05:32;;;;;;;21;9.9;;;;;;;;;;;;;-83
2022/03/03 09:06:16;;;;;;;;;;;;;;;6.87;69.19141;102079.5;;;;-83
2022/03/03 09:11:13;;;;;;;;;;;;;;;7.26;67.97559;102082.9;;;;-82
2022/03/03 09:16:13;;;;;;;;;;;;;;;7.68;67.03809;102077.8;;;;-83
2022/03/03 09:21:13;;;;;;;;;;;;;;;8.06;65.79297;102080.1;;;;-82
2022/03/03 09:26:14;;;;;;;;;;;;;;;8.45;64.48145;102086.3;;;;-81
2022/03/03 09:31:13;;;;;;;;;;;;;;;8.73;63.71582;102086.3;;;;-82
2022/03/03 09:35:32;;;;;;;24.3;11.5;;;;;;;;;;;;;-82
2022/03/03 09:36:13;;;;;;;;;;;;;;;9;63.97461;102079.8;;;;-83
2022/03/03 09:41:15;;;;;;;;;;;;;;;9.29;62.24316;102079.3;;;;-82
2022/03/03 09:46:16;;;;;;;;;;;;;;;9.41;61.53906;102072.6;;;;-82
2022/03/03 09:51:13;;;;;;;;;;;;;;;9.52;61.27832;102072.7;;;;-81
2022/03/03 09:56:14;;;;;;;;;;;;;;;9.72;60.67285;102060.8;;;;-82
2022/03/03 10:01:13;;;;;;;;;;;;;;;9.92;59.7998;102053.5;;;;-82
2022/03/03 10:05:42;;;;;;;22.4;10.8;;;;;;;;;;;;;-81
2022/03/03 10:06:15;;;;;;;;;;;;;;;10.03;59.33789;102051.2;;;;-80
2022/03/03 10:11:14;;;;;;;;;;;;;;;10.22;59.1084;102053.7;;;;-82
2022/03/03 10:16:13;;;;;;;;;;;;;;;10.44;59.03613;102054.3;;;;-81
2022/03/03 10:21:13;;;;;;;;;;;;;;;10.6;58.73633;102046.3;;;;-83
2022/03/03 10:26:15;;;;;;;;;;;;;;;10.73;58.42969;102040.4;;;;-81
2022/03/03 10:31:15;;;;;;;;;;;;;;;10.93;59.27148;102045.9;;;;-83
2022/03/03 10:35:35;;;;;;;22.9;11.4;;;;;;;;;;;;;-82
2022/03/03 10:36:15;;;;;;;;;;;;;;;11.09;58.35547;102051;;;;-81
2022/03/03 10:41:23;;;;;;;;;;;;;;;11.2;59.01855;102049.1;;;;-82
2022/03/03 10:46:13;;;;;;;;;;;;;;;11.33;58.77734;102049.6;;;;-81
2022/03/03 10:51:19;;;;;;;;;;;;;;;11.45;58.34863;102050.9;;;;-82
2022/03/03 10:56:14;;;;;;;;;;;;;;;11.52;59.4502;102051;;;;-82
2022/03/03 11:01:13;;;;;;;;;;;;;;;11.68;59.81934;102053.6;;;;-81
2022/03/03 11:05:39;;;;;;;21.3;11.3;;;;;;;;;;;;;-79
2022/03/03 11:06:14;;;;;;;;;;;;;;;11.79;58.88379;102046.5;;;;-82
2022/03/03 11:11:22;;;;;;;;;;;;;;;11.96;64.1875;102046.4;;;;-81
2022/03/03 11:16:13;;;;;;;;;;;;;;;12.16;60.65527;102039.4;;;;-83
2022/03/03 11:21:13;;;;;;;;;;;;;;;12.31;64.33887;102035.6;;;;-82
2022/03/03 11:26:14;;;;;;;;;;;;;;;12.48;65.40234;102031.3;;;;-81
2022/03/03 11:31:28;;;;;;;;;;;;;;;12.61;67.92188;102031.8;;;;-83
2022/03/03 11:35:48;;;;;;;22.7;12.7;;;;;;;;;;;;;-81
2022/03/03 11:36:21;;;;;;;;;;;;;;;12.7;68.41602;102025.2;;;;-82
2022/03/03 11:41:13;;;;;;;;;;;;;;;12.77;68.15918;102023.8;;;;-82
2022/03/03 11:46:14;;;;;;;;;;;;;;;12.85;70.41406;102022.2;;;;-82
2022/03/03 11:51:24;;;;;;;;;;;;;;;13;68.73047;102017;;;;-82
2022/03/03 11:56:14;;;;;;;;;;;;;;;13.08;69.52344;102010.9;;;;-82
2022/03/03 12:01:14;;;;;;;;;;;;;;;13.21;70.5166;102017.5;;;;-82
2022/03/03 12:05:42;;;;;;;22.4;13.8;;;;;;;;;;;;;-81
2022/03/03 12:06:14;;;;;;;;;;;;;;;13.24;71.39258;102015;;;;-81
2022/03/03 12:11:15;;;;;;;;;;;;;;;13.23;71.24512;102011.1;;;;-82
2022/03/03 12:16:30;;;;;;;;;;;;;;;13.27;71.95605;102005.2;;;;-83
2022/03/03 12:21:27;;;;;;;;;;;;;;;13.31;71.92871;102004.2;;;;-82
2022/03/03 12:26:13;;;;;;;;;;;;;;;13.33;71.90918;102001.4;;;;-82
2022/03/03 12:31:25;;;;;;;;;;;;;;;13.33;72.48828;102002.1;;;;-81
2022/03/03 12:35:40;;;;;;;23.4;13.6;;;;;;;;;;;;;-83
2022/03/03 12:36:13;;;;;;;;;;;;;;;13.38;72.44141;101995.9;;;;-82
2022/03/03 12:41:14;;;;;;;;;;;;;;;13.43;72.74219;101988.7;;;;-82
2022/03/03 12:46:13;;;;;;;;;;;;;;;13.43;72.49707;101983.5;;;;-81
2022/03/03 12:51:14;;;;;;;;;;;;;;;13.46;72.99219;101979.4;;;;-82
2022/03/03 12:56:13;;;;;;;;;;;;;;;13.42;72.7168;101974.1;;;;-82
2022/03/03 13:01:13;;;;;;;;;;;;;;;13.42;73.53125;101976;;;;-83
2022/03/03 13:05:46;;;;;;;22.1;13.2;;;;;;;;;;;;;-82
2022/03/03 13:06:13;;;;;;;;;;;;;;;13.52;74.30762;101967.9;;;;-80
2022/03/03 13:11:14;;;;;;;;;;;;;;;13.57;74.16016;101962.9;;;;-82
2022/03/03 13:16:19;;;;;;;;;;;;;;;13.66;74.00684;101962.6;;;;-82
2022/03/03 13:21:13;;;;;;;;;;;;;;;13.7;74.37109;101960.6;;;;-80
2022/03/03 13:26:14;;;;;;;;;;;;;;;13.75;74.78125;101957.7;;;;-81
2022/03/03 13:31:14;;;;;;;;;;;;;;;13.79;74.41895;101957.2;;;;-81
2022/03/03 13:35:46;;;;;;;21.4;13;;;;;;;;;;;;;-81
2022/03/03 13:36:23;;;;;;;;;;;;;;;13.82;74.29102;101959.3;;;;-82
2022/03/03 13:41:26;;;;;;;;;;;;;;;13.82;73.00684;101963;;;;-81
2022/03/03 13:46:13;;;;;;;;;;;;;;;13.81;73.30664;101961.3;;;;-80
2022/03/03 13:51:13;;;;;;;;;;;;;;;13.8;72.93457;101961.2;;;;-81
2022/03/03 13:56:15;;;;;;;;;;;;;;;13.76;72.10352;101952.7;;;;-80
2022/03/03 14:01:15;;;;;;;;;;;;;;;13.72;72.12988;101943;;;;-82
2022/03/03 14:05:47;;;;;;;24.8;14.1;;;;;;;;;;;;;-80
2022/03/03 14:06:13;;;;;;;;;;;;;;;13.73;72.60059;101935.9;;;;-81
2022/03/03 14:11:14;;;;;;;;;;;;;;;13.74;72.40039;101944;;;;-82
2022/03/03 14:16:13;;;;;;;;;;;;;;;13.69;72.06836;101936.5;;;;-81
2022/03/03 14:21:13;;;;;;;;;;;;;;;13.63;70.48535;101940.1;;;;-81
2022/03/03 14:26:14;;;;;;;;;;;;;;;13.61;71.73242;101935.2;;;;-80
2022/03/03 14:31:16;;;;;;;;;;;;;;;13.61;71.90137;101936.6;;;;-85
2022/03/03 14:35:48;;;;;;;22.1;13.2;;;;;;;;;;;;;-80
2022/03/03 14:36:13;;;;;;;;;;;;;;;13.62;72.63867;101930.6;;;;-82
2022/03/03 14:41:13;;;;;;;;;;;;;;;13.64;72.66406;101926.6;;;;-82
2022/03/03 14:46:15;;;;;;;;;;;;;;;13.68;73.375;101927;;;;-81
2022/03/03 14:51:13;;;;;;;;;;;;;;;13.63;71.12012;101923.9;;;;-81
2022/03/03 14:56:14;;;;;;;;;;;;;;;13.6;70.90234;101919.4;;;;-82
2022/03/03 15:01:13;;;;;;;;;;;;;;;13.6;71.85156;101919.9;;;;-83
2022/03/03 15:05:49;;;;;;;21.9;12.8;;;;;;;;;;;;;-80
2022/03/03 15:06:15;;;;;;;;;;;;;;;13.57;71.91406;101913.7;;;;-80
2022/03/03 15:11:13;;;;;;;;;;;;;;;13.47;70.89453;101908.2;;;;-82
2022/03/03 15:16:13;;;;;;;;;;;;;;;13.39;69.62988;101901.4;;;;-81
2022/03/03 15:21:13;;;;;;;;;;;;;;;13.34;71.98926;101902;;;;-81
2022/03/03 15:26:13;;;;;;;;;;;;;;;13.31;72.44043;101908;;;;-80
2022/03/03 15:31:15;;;;;;;;;;;;;;;13.2;71.41992;101903.4;;;;-80
2022/03/03 15:41:17;;;;;;;;;;;;;;;13;70.89648;101904.8;;;;-81
2022/03/03 15:46:19;;;;;;;;;;;;;;;12.85;69.29785;101911.1;;;;-82
2022/03/03 15:51:13;;;;;;;;;;;;;;;12.68;68.72559;101907.4;;;;-82
2022/03/03 15:56:13;;;;;;;;;;;;;;;12.52;67.93066;101900.4;;;;-82
2022/03/03 16:01:17;;;;;;;;;;;;;;;12.36;67.3584;101897.6;;;;-82
2022/03/03 16:05:55;;;;;;;21.3;11.5;;;;;;;;;;;;;-80
2022/03/03 16:06:13;;;;;;;;;;;;;;;12.17;66.8291;101904.6;;;;-80
2022/03/03 16:11:13;;;;;;;;;;;;;;;12.08;65.60938;101903.2;;;;-80
2022/03/03 16:16:14;;;;;;;;;;;;;;;12.03;63.81836;101906.1;;;;-81
2022/03/03 16:21:14;;;;;;;;;;;;;;;11.85;64.40625;101908;;;;-81
2022/03/03 16:26:13;;;;;;;;;;;;;;;11.61;65.46191;101900.9;;;;-82
2022/03/03 16:31:24;;;;;;;;;;;;;;;11.47;65.1084;101906.8;;;;-81
2022/03/03 16:35:56;;;;;;;19.9;10.6;;;;;;;;;;;;;-79
2022/03/03 16:36:13;;;;;;;;;;;;;;;11.31;65.08301;101909.8;;;;-81
2022/03/03 16:41:13;;;;;;;;;;;;;;;11.08;65.04883;101914.5;;;;-84
2022/03/03 16:46:13;;;;;;;;;;;;;;;10.82;65.38965;101913.5;;;;-80
2022/03/03 16:51:13;;;;;;;;;;;;;;;10.59;65.52051;101918.3;;;;-83
2022/03/03 16:56:13;;;;;;;;;;;;;;;10.35;65.5957;101926.5;;;;-80
2022/03/03 17:01:14;;;;;;;;;;;;;;;10.12;65.44922;101920.9;;;;-83
2022/03/03 17:05:55;;;;;;;17.2;9.5;;;;;;;;;;;;;-81
2022/03/03 17:06:14;;;;;;;;;;;;;;;9.89;65.74805;101922.9;;;;-79
2022/03/03 17:11:13;;;;;;;;;;;;;;;9.67;66.25879;101930.6;;;;-80
2022/03/03 17:16:15;;;;;;;;;;;;;;;9.45;65.97168;101927.8;;;;-82
2022/03/03 17:21:24;;;;;;;;;;;;;;;9.26;66.66211;101938.6;;;;-82
2022/03/03 17:26:13;;;;;;;;;;;;;;;9.06;66.9082;101946.7;;;;-81
2022/03/03 17:31:13;;;;;;;;;;;;;;;8.87;66.87793;101953.1;;;;-84
2022/03/03 17:35:58;;;;;;;16.2;8.3;;;;;;;;;;;;;-83
2022/03/03 17:36:13;;;;;;;;;;;;;;;8.69;67.21582;101956.8;;;;-81
2022/03/03 17:41:14;;;;;;;;;;;;;;;8.52;67.83105;101963.3;;;;-82
2022/03/03 17:46:13;;;;;;;;;;;;;;;8.33;67.90234;101964.5;;;;-82
2022/03/03 17:51:14;;;;;;;;;;;;;;;8.18;67.33496;101972.2;;;;-84
2022/03/03 17:56:14;;;;;;;;;;;;;;;8.02;68.08301;101981.4;;;;-82
2022/03/03 18:01:14;;;;;;;;;;;;;;;7.86;67.80469;101988.6;;;;-83
2022/03/03 18:05:58;;;;;;;15.4;8;;;;;;;;;;;;;-81
2022/03/03 18:06:15;;;;;;;;;;;;;;;7.69;67.72363;101992.4;;;;-80
2022/03/03 18:11:14;;;;;;;;;;;;;;;7.58;67.69629;101994.3;;;;-82
2022/03/03 18:16:14;;;;;;;;;;;;;;;7.41;67.55859;101998.8;;;;-82
2022/03/03 18:21:13;;;;;;;;;;;;;;;7.28;67.40625;101999.1;;;;-82
2022/03/03 18:26:17;;;;;;;;;;;;;;;7.16;67.45313;102005.9;;;;-81
2022/03/03 18:31:13;;;;;;;;;;;;;;;7.03;67.34668;102001.9;;;;-84
2022/03/03 18:36:06;;;;;;;16.7;8.3;;;;;;;;;;;;;-83
2022/03/03 18:36:16;;;;;;;;;;;;;;;6.93;67.5918;102008.7;;;;-80
2022/03/03 18:41:14;;;;;;;;;;;;;;;6.82;67.58789;102014.4;;;;-82
2022/03/03 18:46:14;;;;;;;;;;;;;;;6.72;67.69336;102024.1;;;;-82
2022/03/03 18:51:13;;;;;;;;;;;;;;;6.62;67.56738;102027.8;;;;-82
2022/03/03 18:56:13;;;;;;;;;;;;;;;6.51;67.95703;102032.3;;;;-83
2022/03/03 19:01:13;;;;;;;;;;;;;;;6.42;68.05273;102032;;;;-83
2022/03/03 19:05:59;;;;;;;15.5;7.6;;;;;;;;;;;;;-82
2022/03/03 19:06:16;;;;;;;;;;;;;;;6.28;68.26074;102023;;;;-83
2022/03/03 19:11:14;;;;;;;;;;;;;;;6.23;68.16602;102040.5;;;;-81
2022/03/03 19:16:13;;;;;;;;;;;;;;;6.13;68.24902;102047.5;;;;-81
2022/03/03 19:21:15;;;;;;;;;;;;;;;6.03;68.37598;102044.1;;;;-82
2022/03/03 19:26:17;;;;;;;;;;;;;;;5.94;68.58301;102050.1;;;;-82
2022/03/03 19:31:18;;;;;;;;;;;;;;;5.83;68.4541;102053.6;;;;-81
2022/03/03 19:35:59;;;;;;;15.7;7.9;;;;;;;;;;;;;-82
2022/03/03 19:36:13;;;;;;;;;;;;;;;5.74;68.58301;102061.2;;;;-77
2022/03/03 19:41:15;;;;;;;;;;;;;;;5.65;68.72168;102064.8;;;;-82
2022/03/03 19:46:13;;;;;;;;;;;;;;;5.58;68.47949;102063.1;;;;-83
2022/03/03 19:51:13;;;;;;;;;;;;;;;5.5;68.31445;102067.3;;;;-83
2022/03/03 19:56:15;;;;;;;;;;;;;;;5.43;68.29199;102075;;;;-83
2022/03/03 20:01:13;;;;;;;;;;;;;;;5.37;68.4043;102072.9;;;;-83
2022/03/03 20:06:00;;;;;;;14.2;6.7;;;;;;;;;;;;;-83
2022/03/03 20:06:13;;;;;;;;;;;;;;;5.3;68.33789;102080.3;;;;-82
2022/03/03 20:11:13;;;;;;;;;;;;;;;5.24;68.53613;102082.8;;;;-82
2022/03/03 20:16:16;;;;;;;;;;;;;;;5.18;68.50488;102088.8;;;;-83
2022/03/03 20:21:13;;;;;;;;;;;;;;;5.12;68.73828;102097.5;;;;-82
2022/03/03 20:26:25;;;;;;;;;;;;;;;5.05;68.66992;102096.7;;;;-81
2022/03/03 20:31:18;;;;;;;;;;;;;;;4.98;68.52734;102110.9;;;;-84
2022/03/03 20:36:01;;;;;;;13;6.1;;;;;;;;;;;;;-82
2022/03/03 20:36:13;;;;;;;;;;;;;;;4.93;68.39941;102112.8;;;;-80
2022/03/03 20:41:14;;;;;;;;;;;;;;;4.85;68.34375;102112.3;;;;-84
2022/03/03 20:46:15;;;;;;;;;;;;;;;4.81;68.46777;102109.2;;;;-82
2022/03/03 20:51:14;;;;;;;;;;;;;;;4.76;68.54785;102114.3;;;;-82
2022/03/03 20:56:14;;;;;;;;;;;;;;;4.71;68.50684;102109.5;;;;-82
2022/03/03 21:01:14;;;;;;;;;;;;;;;4.66;68.44531;102108;;;;-82
2022/03/03 21:06:01;;;;;;;13.6;6.2;;;;;;;;;;;;;-83
2022/03/03 21:06:17;;;;;;;;;;;;;;;4.56;68.56055;102101.9;;;;-83
2022/03/03 21:11:20;;;;;;;;;;;;;;;4.54;68.27246;102116.2;;;;-83
2022/03/03 21:16:13;;;;;;;;;;;;;;;4.49;68.33008;102120.6;;;;-83
2022/03/03 21:21:19;;;;;;;;;;;;;;;4.44;68.33398;102124.3;;;;-83
2022/03/03 21:26:13;;;;;;;;;;;;;;;4.4;68.4248;102125.8;;;;-83
2022/03/03 21:31:15;;;;;;;;;;;;;;;4.34;68.36133;102118.5;;;;-81
2022/03/03 21:36:01;;;;;;;14.4;5.9;;;;;;;;;;;;;-82
2022/03/03 21:36:13;;;;;;;;;;;;;;;4.31;68.50781;102114.2;;;;-82
2022/03/03 21:41:14;;;;;;;;;;;;;;;4.26;68.55664;102118.3;;;;-83
2022/03/03 21:46:13;;;;;;;;;;;;;;;4.23;68.66016;102121.1;;;;-82
2022/03/03 21:51:13;;;;;;;;;;;;;;;4.18;68.60938;102121.5;;;;-81
2022/03/03 21:56:15;;;;;;;;;;;;;;;4.13;68.52344;102126;;;;-84
2022/03/03 22:01:13;;;;;;;;;;;;;;;4.08;68.81152;102124.7;;;;-82
2022/03/03 22:06:00;;;;;;;13;6.1;;;;;;;;;;;;;-83
2022/03/03 22:06:13;;;;;;;;;;;;;;;4.04;68.96875;102122.4;;;;-81
2022/03/03 22:11:13;;;;;;;;;;;;;;;3.99;68.87402;102113;;;;-83
2022/03/03 22:16:13;;;;;;;;;;;;;;;3.92;68.88379;102113.3;;;;-82
2022/03/03 22:21:14;;;;;;;;;;;;;;;3.87;69.0293;102114.1;;;;-83
2022/03/03 22:26:14;;;;;;;;;;;;;;;3.81;69.10645;102116.9;;;;-82
2022/03/03 22:31:13;;;;;;;;;;;;;;;3.75;69.15234;102120.7;;;;-81
2022/03/03 22:36:00;;;;;;;17.3;6.8;;;;;;;;;;;;;-82
2022/03/03 22:36:13;;;;;;;;;;;;;;;3.69;69.3623;102121.2;;;;-82
2022/03/03 22:41:14;;;;;;;;;;;;;;;3.64;69.33203;102119.6;;;;-82
2022/03/03 22:46:14;;;;;;;;;;;;;;;3.59;69.51758;102130.6;;;;-83
2022/03/03 22:56:13;;;;;;;;;;;;;;;3.47;69.66406;102133.9;;;;-84
2022/03/03 23:01:23;;;;;;;;;;;;;;;3.42;69.69922;102135.6;;;;-83
2022/03/03 23:06:00;;;;;;;16.2;6.6;;;;;;;;;;;;;-83
2022/03/03 23:06:13;;;;;;;;;;;;;;;3.37;69.86621;102135.4;;;;-82
2022/03/03 23:11:14;;;;;;;;;;;;;;;3.32;69.94434;102136.5;;;;-82
2022/03/03 23:16:13;;;;;;;;;;;;;;;3.27;70.0459;102144;;;;-81
2022/03/03 23:21:14;;;;;;;;;;;;;;;3.23;70.00781;102149.4;;;;-84
2022/03/03 23:26:13;;;;;;;;;;;;;;;3.18;70.02051;102153.9;;;;-81
2022/03/03 23:31:15;;;;;;;;;;;;;;;3.15;70.16895;102151.8;;;;-84
2022/03/03 23:36:00;;;;;;;16;6.6;;;;;;;;;;;;;-83
2022/03/03 23:36:14;;;;;;;;;;;;;;;3.12;70.28418;102157.8;;;;-82
2022/03/03 23:41:15;;;;;;;;;;;;;;;3.07;70.23145;102164.8;;;;-82
2022/03/03 23:46:14;;;;;;;;;;;;;;;3.02;70.37695;102171.2;;;;-82
2022/03/03 23:51:13;;;;;;;;;;;;;;;2.99;70.45801;102169.3;;;;-82
2022/03/03 23:56:13;;;;;;;;;;;;;;;2.96;70.37793;102160;;;;-81
